^^
Datos históricos de la estación: Murcia-Puente Tocinos
Diario Informe para Junio 10, 2019 Unidades:  Inglés    Métrico   Ambas
Diario Semanal Mensual Anual Configurable
  Máximo: Mínimo: Media:
Temperatura: 87.3 °F 68.4 °F 76.6 °F
Punto de rocio: 63.5 °F 40.8 °F 52.5 °F
Humedad: 84% 21% 47%
Velocidad viento: 14.5mph 2.9mph 7.1mph
Racha viento: 25.3mph - -
Viento- - South
Presión: 29.9 in 29.8 in -
Precipitación: 0 in    
Historical Graphs
 
 
Tabla de datos para Junio 10, 2019
Hora Temperatura Punto de rocio Presión Viento Velocidad viento Racha viento Humedad Intensidad lluvia(por hora) Nubes
00:04 72.7 °F 60.3 °F 29.9 in SSW 7.4 mph 8.1 mph 65% 0 in CLR
00:09 72.3 °F 60.3 °F 29.9 in SSW 5.9 mph 9.2 mph 66% 0 in CLR
00:14 72 °F 60.4 °F 29.9 in SSE 5.9 mph 10.4 mph 67% 0 in CLR
00:19 71.8 °F 60.6 °F 29.9 in WSW 6.2 mph 7.4 mph 68% 0 in CLR
00:24 71.8 °F 60.6 °F 29.9 in SSW 6.2 mph 10.4 mph 68% 0 in CLR
00:29 71.4 °F 60.3 °F 29.9 in SW 5.9 mph 6.9 mph 68% 0 in CLR
00:34 71.4 °F 60.3 °F 29.9 in SW 5.9 mph 7.4 mph 68% 0 in CLR
00:39 71.4 °F 60.6 °F 29.9 in SSW 4.7 mph 8.1 mph 69% 0 in CLR
00:44 71.2 °F 60.4 °F 29.9 in WSW 4.7 mph 5.8 mph 69% 0 in CLR
00:49 71.1 °F 60.8 °F 29.9 in SW 5.2 mph 6.9 mph 70% 0 in CLR
00:54 71.1 °F 60.8 °F 29.9 in WSW 5.2 mph 5.8 mph 70% 0 in CLR
00:59 71.1 °F 60.8 °F 29.9 in WSW 4 mph 6.9 mph 70% 0 in CLR
01:04 70.9 °F 60.6 °F 29.9 in SW 4 mph 8.1 mph 70% 0 in CLR
01:09 70.9 °F 60.6 °F 29.9 in SW 5.2 mph 6.9 mph 70% 0 in CLR
01:14 70.9 °F 60.6 °F 29.9 in SW 5.2 mph 8.5 mph 70% 0 in CLR
01:19 70.9 °F 60.6 °F 29.9 in SSW 4.3 mph 5.8 mph 70% 0 in CLR
01:24 70.7 °F 60.8 °F 29.9 in SW 4.3 mph 6.9 mph 71% 0 in CLR
01:29 70.7 °F 60.8 °F 29.9 in SSW 5.2 mph 9.2 mph 71% 0 in CLR
01:34 70.3 °F 61 °F 29.9 in SSW 5.2 mph 11.5 mph 72% 0 in CLR
01:39 70.3 °F 61.3 °F 29.9 in South 6.2 mph 6.9 mph 73% 0 in CLR
01:44 70.2 °F 61.2 °F 29.9 in SW 6.2 mph 7.4 mph 73% 0 in CLR
01:49 70.2 °F 61.2 °F 29.9 in South 4.7 mph 9.2 mph 73% 0 in CLR
01:54 70 °F 61.3 °F 29.9 in SW 4.7 mph 11.5 mph 74% 0 in CLR
01:59 69.6 °F 61.3 °F 29.9 in SSW 6.4 mph 6.9 mph 75% 0 in CLR
02:04 69.4 °F 61.2 °F 29.9 in SW 6.4 mph 10.7 mph 75% 0 in CLR
02:09 69.3 °F 61.3 °F 29.9 in South 6.4 mph 10.4 mph 76% 0 in CLR
02:14 69.3 °F 61.3 °F 29.9 in SW 6.4 mph 9.2 mph 76% 0 in CLR
02:19 69.3 °F 61.7 °F 29.9 in SW 6.2 mph 8.1 mph 77% 0 in CLR
02:24 69.3 °F 61.7 °F 29.9 in SSW 6.2 mph 5.8 mph 77% 0 in CLR
02:29 69.1 °F 61.5 °F 29.9 in SSW 4.7 mph 10.4 mph 77% 0 in CLR
02:34 69.1 °F 61.5 °F 29.9 in SSW 4.7 mph 8.1 mph 77% 0 in CLR
02:39 69.1 °F 61.5 °F 29.9 in SW 5.9 mph 8.1 mph 77% 0 in CLR
02:44 69.3 °F 61.7 °F 29.9 in SW 5.9 mph 6.9 mph 77% 0 in CLR
02:49 69.3 °F 61.3 °F 29.9 in SSW 5.4 mph 6.9 mph 76% 0 in CLR
02:54 69.4 °F 61.5 °F 29.9 in West 5.4 mph 8.1 mph 76% 0 in CLR
02:59 69.4 °F 61.2 °F 29.9 in SW 4.7 mph 6.9 mph 75% 0 in CLR
03:04 69.4 °F 61.5 °F 29.9 in SW 4.7 mph 8.1 mph 76% 0 in CLR
03:09 69.4 °F 61.5 °F 29.9 in SW 5.4 mph 5.9 mph 76% 0 in CLR
03:14 69.4 °F 61.5 °F 29.9 in SW 5.4 mph 6.9 mph 76% 0 in CLR
03:19 69.4 °F 61.2 °F 29.9 in SSW 4.3 mph 6.9 mph 75% 0 in CLR
03:24 69.4 °F 61.2 °F 29.9 in SSW 4.3 mph 5.8 mph 75% 0 in CLR
03:29 69.6 °F 61 °F 29.9 in SSW 4.7 mph 5.8 mph 74% 0 in CLR
03:34 69.6 °F 61 °F 29.9 in SSW 4.7 mph 8.1 mph 74% 0 in CLR
03:39 69.6 °F 61 °F 29.9 in South 4.3 mph 5.8 mph 74% 0 in CLR
03:44 69.6 °F 61 °F 29.9 in SSE 4.3 mph 4.6 mph 74% 0 in CLR
03:49 69.4 °F 60.8 °F 29.9 in SSW 3.6 mph 4.6 mph 74% 0 in CLR
03:54 69.4 °F 60.8 °F 29.9 in SSW 3.6 mph 6.9 mph 74% 0 in CLR
03:59 69.4 °F 60.8 °F 29.9 in SSW 4 mph 5.8 mph 74% 0 in CLR
04:04 69.4 °F 60.8 °F 29.9 in SSW 4 mph 5.8 mph 74% 0 in CLR
04:09 69.4 °F 60.4 °F 29.9 in SSW 4.3 mph 5.8 mph 73% 0 in CLR
04:14 69.6 °F 60.3 °F 29.9 in WSW 4.3 mph 5.8 mph 72% 0 in CLR
04:19 69.6 °F 59.7 °F 29.9 in WSW 4 mph 4.3 mph 71% 0 in CLR
04:24 69.6 °F 60.3 °F 29.9 in WSW 4 mph 4.6 mph 72% 0 in CLR
04:29 69.6 °F 60.3 °F 29.9 in WSW 3.6 mph 6.9 mph 72% 0 in CLR
04:34 69.4 °F 60.4 °F 29.9 in NW 3.6 mph 5.9 mph 73% 0 in CLR
04:39 69.3 °F 60.3 °F 29.9 in WSW 4 mph 4.6 mph 73% 0 in CLR
04:44 69.1 °F 60.1 °F 29.9 in WSW 4 mph 5.9 mph 73% 0 in CLR
04:49 69.1 °F 60.1 °F 29.9 in WNW 3.6 mph 5.2 mph 73% 0 in CLR
04:54 68.9 °F 57.9 °F 29.9 in West 3.6 mph 2.3 mph 68% 0 in CLR
04:59 69.6 °F 55.6 °F 29.9 in SW 2.9 mph 10.4 mph 61% 0 in CLR
05:04 71.4 °F 52.9 °F 29.9 in WNW 2.9 mph 9.2 mph 52% 0 in CLR
05:09 72.3 °F 52.5 °F 29.9 in SW 5.9 mph 9.2 mph 50% 0 in CLR
05:14 72.5 °F 52.9 °F 29.9 in South 5.9 mph 6.9 mph 50% 0 in CLR
05:19 72.9 °F 54.1 °F 29.9 in South 4.7 mph 8.1 mph 52% 0 in CLR
05:24 72.3 °F 55.2 °F 29.9 in South 4.7 mph 10.4 mph 55% 0 in CLR
05:29 71.4 °F 55.4 °F 29.9 in SSE 5.9 mph 5.8 mph 57% 0 in CLR
05:34 71.2 °F 54.7 °F 29.9 in SSW 5.9 mph 8.1 mph 56% 0 in CLR
05:39 71.1 °F 53.1 °F 29.9 in South 3.6 mph 6.2 mph 53% 0 in CLR
05:44 71.1 °F 54.1 °F 29.9 in South 3.6 mph 7.4 mph 55% 0 in CLR
05:49 70.9 °F 53.4 °F 29.9 in SSW 5.2 mph 8.1 mph 54% 0 in CLR
05:54 70.9 °F 53.4 °F 29.9 in South 5.2 mph 5.9 mph 54% 0 in CLR
05:59 70.9 °F 52.3 °F 29.9 in South 4.7 mph 6.9 mph 52% 0 in CLR
06:04 70.9 °F 51.8 °F 29.9 in South 4.7 mph 6.2 mph 51% 0 in CLR
06:09 71.1 °F 51.4 °F 29.9 in South 4.7 mph 6.9 mph 50% 0 in CLR
06:14 71.1 °F 49.8 °F 29.9 in SSW 4.7 mph 8.1 mph 47% 0 in CLR
06:19 71.2 °F 49.5 °F 29.9 in SSW 5.4 mph 8.1 mph 46% 0 in CLR
06:24 71.4 °F 48.9 °F 29.9 in SSW 5.4 mph 8.1 mph 45% 0 in CLR
06:29 71.6 °F 48.6 °F 29.9 in SSW 5.2 mph 6.9 mph 44% 0 in CLR
06:34 71.6 °F 47.8 °F 29.9 in South 5.2 mph 6.9 mph 43% 0 in CLR
06:39 71.8 °F 47.5 °F 29.9 in SW 5.2 mph 8.1 mph 42% 0 in CLR
06:44 71.8 °F 47.5 °F 29.9 in SSW 5.2 mph 5.8 mph 42% 0 in CLR
06:49 71.8 °F 46.8 °F 29.9 in SSW 4.7 mph 9.2 mph 41% 0 in CLR
06:54 72 °F 46.2 °F 29.9 in SW 4.7 mph 6.4 mph 40% 0 in CLR
06:59 72 °F 45.7 °F 29.9 in South 5.4 mph 5.8 mph 39% 0 in CLR
07:04 72 °F 45.7 °F 29.9 in South 5.4 mph 5.8 mph 39% 0 in CLR
07:09 72.1 °F 45.1 °F 29.9 in South 5.2 mph 5.8 mph 38% 0 in CLR
07:14 72.1 °F 45.1 °F 29.9 in SW 5.2 mph 4 mph 38% 0 in CLR
07:19 72.3 °F 44.6 °F 29.9 in SSW 3.6 mph 8.1 mph 37% 0 in CLR
07:24 72.5 °F 44.8 °F 29.9 in SSW 3.6 mph 5.8 mph 37% 0 in CLR
07:29 72.5 °F 44.8 °F 29.9 in SSW 4.7 mph 5.9 mph 37% 0 in CLR
07:34 72.5 °F 44.8 °F 29.9 in SSW 4.7 mph 4.6 mph 37% 0 in CLR
07:39 72.5 °F 44.8 °F 29.9 in South 4 mph 5.8 mph 37% 0 in CLR
07:44 72.5 °F 44.1 °F 29.9 in SW 4 mph 8.1 mph 36% 0 in CLR
07:49 72.5 °F 44.1 °F 29.9 in SW 4.3 mph 5.8 mph 36% 0 in CLR
07:54 72.5 °F 44.1 °F 29.9 in WSW 4.3 mph 4.7 mph 36% 0 in CLR
07:59 72.5 °F 44.1 °F 29.9 in SW 4.3 mph 5.9 mph 36% 0 in CLR
08:04 72.7 °F 44.2 °F 29.9 in SSW 4.3 mph 8.1 mph 36% 0 in CLR
08:09 72.7 °F 44.2 °F 29.9 in WSW 4.7 mph 5.4 mph 36% 0 in CLR
08:14 72.7 °F 43.3 °F 29.9 in SW 4.7 mph 10.4 mph 35% 0 in CLR
08:19 72.9 °F 43.5 °F 29.9 in SW 5.2 mph 8.1 mph 35% 0 in CLR
08:24 73 °F 43.9 °F 29.9 in SSW 5.2 mph 8.1 mph 35% 0 in CLR
08:29 73.2 °F 43.9 °F 29.9 in SW 5.4 mph 8.1 mph 35% 0 in CLR
08:34 73.4 °F 44.1 °F 29.9 in WSW 5.4 mph 6.9 mph 35% 0 in CLR
08:39 73.6 °F 44.2 °F 29.9 in SSW 5.2 mph 7.4 mph 35% 0 in CLR
08:44 73.9 °F 44.4 °F 29.9 in SW 5.2 mph 8.1 mph 35% 0 in CLR
08:49 74.1 °F 44.8 °F 29.9 in WSW 5.2 mph 9.2 mph 35% 0 in CLR
08:54 74.5 °F 45 °F 29.9 in WSW 5.2 mph 6.9 mph 35% 0 in CLR
08:59 75 °F 45.5 °F 29.9 in WSW 5.4 mph 8.1 mph 35% 0 in CLR
09:04 75.4 °F 45.1 °F 29.9 in West 5.4 mph 8.1 mph 34% 0 in CLR
09:09 75.6 °F 45.1 °F 29.9 in SW 5.4 mph 9.2 mph 34% 0 in CLR
09:14 75.9 °F 44.8 °F 29.9 in SW 5.4 mph 11.5 mph 33% 0 in CLR
09:19 76.3 °F 45.1 °F 29.9 in SW 6.9 mph 12.7 mph 33% 0 in CLR
09:24 76.5 °F 44.4 °F 29.9 in SW 6.9 mph 11.8 mph 32% 0 in CLR
09:29 76.6 °F 44.6 °F 29.9 in West 6.9 mph 14 mph 32% 0 in CLR
09:34 76.8 °F 43.9 °F 29.9 in WSW 6.9 mph 11.8 mph 31% 0 in CLR
09:39 77.2 °F 43.3 °F 29.9 in West 8.7 mph 18.4 mph 30% 0 in CLR
09:44 77.5 °F 43.5 °F 29.9 in WNW 8.7 mph 12.7 mph 30% 0 in CLR
09:49 77.4 °F 43.5 °F 29.9 in NW 9.2 mph 12.7 mph 30% 0 in CLR
09:54 77.5 °F 43.5 °F 29.9 in West 9.2 mph 18.1 mph 30% 0 in CLR
09:59 77.4 °F 43.5 °F 29.9 in WNW 9.7 mph 12.7 mph 30% 0 in CLR
10:04 77.5 °F 43.5 °F 29.9 in West 9.7 mph 16.1 mph 30% 0 in CLR
10:09 77.5 °F 42.8 °F 29.9 in NW 9.2 mph 15 mph 29% 0 in CLR
10:14 78.1 °F 44.1 °F 29.9 in NW 9.2 mph 10.4 mph 30% 0 in CLR
10:19 78.3 °F 43.3 °F 29.9 in WNW 8.7 mph 11.5 mph 29% 0 in CLR
10:24 78.4 °F 43.5 °F 29.9 in WSW 8.7 mph 10.4 mph 29% 0 in CLR
10:29 78.8 °F 43.9 °F 29.9 in NW 8.5 mph 11.5 mph 29% 0 in CLR
10:34 79 °F 44.1 °F 29.9 in WNW 8.5 mph 13.8 mph 29% 0 in CLR
10:39 79.2 °F 44.2 °F 29.9 in West 8.5 mph 11.2 mph 29% 0 in CLR
10:44 79 °F 43.2 °F 29.9 in NW 8.5 mph 12.7 mph 28% 0 in CLR
10:49 79.3 °F 44.2 °F 29.9 in SW 6.2 mph 11.5 mph 29% 0 in CLR
10:54 79.9 °F 43.9 °F 29.9 in West 6.2 mph 10 mph 28% 0 in CLR
10:59 79.9 °F 43.9 °F 29.9 in WSW 6.4 mph 11.4 mph 28% 0 in CLR
11:04 80.1 °F 43.2 °F 29.9 in West 6.4 mph 11.5 mph 27% 0 in CLR
11:09 80.4 °F 43.3 °F 29.9 in West 6.4 mph 9.2 mph 27% 0 in CLR
11:14 80.4 °F 43.3 °F 29.9 in West 6.4 mph 12.7 mph 27% 0 in CLR
11:19 80.6 °F 43.5 °F 29.9 in NW 6.9 mph 11.4 mph 27% 0 in CLR
11:24 80.6 °F 43.5 °F 29.9 in NW 6.9 mph 9.2 mph 27% 0 in CLR
11:29 80.8 °F 43.7 °F 29.9 in WNW 6.4 mph 8.1 mph 27% 0 in CLR
11:34 81.3 °F 43.2 °F 29.9 in West 6.4 mph 7.6 mph 26% 0 in CLR
11:39 81.7 °F 43.5 °F 29.9 in WNW 5.4 mph 6.4 mph 26% 0 in CLR
11:44 81.7 °F 43.5 °F 29.9 in West 5.4 mph 8.1 mph 26% 0 in CLR
11:49 81.7 °F 43.5 °F 29.9 in WNW 5.9 mph 6.2 mph 26% 0 in CLR
11:54 82 °F 43.9 °F 29.9 in WSW 5.9 mph 4.7 mph 26% 0 in CLR
11:59 82.4 °F 43 °F 29.9 in West 4 mph 6.9 mph 25% 0 in CLR
12:04 82.6 °F 43.2 °F 29.9 in West 4 mph 8.1 mph 25% 0 in CLR
12:09 82.9 °F 42.4 °F 29.9 in NW 5.4 mph 6.9 mph 24% 0 in CLR
12:14 82.9 °F 42.4 °F 29.9 in NW 5.4 mph 12.3 mph 24% 0 in CLR
12:19 83.5 °F 43 °F 29.9 in WNW 5.4 mph 10.4 mph 24% 0 in CLR
12:24 83.7 °F 43 °F 29.9 in North 5.4 mph 12.7 mph 24% 0 in CLR
12:29 83.7 °F 40.8 °F 29.9 in WNW 6.9 mph 8.5 mph 22% 0 in CLR
12:34 84 °F 42.3 °F 29.9 in WNW 6.9 mph 11.4 mph 23% 0 in CLR
12:39 84.2 °F 41.2 °F 29.9 in WNW 6.2 mph 16.1 mph 22% 0 in CLR
12:44 84 °F 41.2 °F 29.9 in WNW 6.2 mph 13.8 mph 22% 0 in CLR
12:49 83.8 °F 40.8 °F 29.9 in WNW 8.7 mph 10.4 mph 22% 0 in CLR
12:54 84 °F 42.3 °F 29.9 in WNW 8.7 mph 8.1 mph 23% 0 in CLR
12:59 84 °F 41.2 °F 29.9 in NW 6.2 mph 11.5 mph 22% 0 in CLR
13:04 84.4 °F 42.4 °F 29.9 in WSW 6.2 mph 12.7 mph 23% 0 in CLR
13:09 84.9 °F 41.7 °F 29.9 in SW 6.4 mph 12.7 mph 22% 0 in CLR
13:14 84.9 °F 41.7 °F 29.9 in West 6.4 mph 9.7 mph 22% 0 in CLR
13:19 84.9 °F 41.7 °F 29.9 in SSW 6.4 mph 12.7 mph 22% 0 in CLR
13:24 85.3 °F 42.1 °F 29.9 in West 6.4 mph 13 mph 22% 0 in CLR
13:29 84.9 °F 41.7 °F 29.9 in West 7.6 mph 12.7 mph 22% 0 in CLR
13:34 84.9 °F 41.7 °F 29.9 in WSW 7.6 mph 11.5 mph 22% 0 in CLR
13:39 85.1 °F 42.1 °F 29.9 in SW 7.6 mph 8.1 mph 22% 0 in CLR
13:44 84.9 °F 41.7 °F 29.9 in East 7.6 mph 2.3 mph 22% 0 in CLR
13:49 85.6 °F 42.4 °F 29.9 in SW 3.1 mph 5.8 mph 22% 0 in CLR
13:54 85.8 °F 42.6 °F 29.9 in West 3.1 mph 10.2 mph 22% 0 in CLR
13:59 86.2 °F 41.7 °F 29.9 in SW 6.2 mph 12.7 mph 21% 0 in CLR
14:04 85.6 °F 42.4 °F 29.8 in South 6.2 mph 10.4 mph 22% 0 in CLR
14:09 85.6 °F 41.2 °F 29.8 in West 5.9 mph 5.8 mph 21% 0 in CLR
14:14 85.8 °F 42.6 °F 29.8 in NW 5.9 mph 8.1 mph 22% 0 in CLR
14:19 86.2 °F 41.7 °F 29.8 in South 4.3 mph 6.9 mph 21% 0 in CLR
14:24 86.4 °F 41.7 °F 29.8 in West 4.3 mph 3.5 mph 21% 0 in CLR
14:29 86.5 °F 42.1 °F 29.8 in SW 3.6 mph 5.4 mph 21% 0 in CLR
14:34 86.7 °F 42.1 °F 29.8 in West 3.6 mph 3.6 mph 21% 0 in CLR
14:39 87.3 °F 42.6 °F 29.8 in SW 3.1 mph 6.9 mph 21% 0 in CLR
14:44 87.1 °F 42.4 °F 29.8 in NNE 3.1 mph 4.6 mph 21% 0 in CLR
14:49 87.3 °F 42.6 °F 29.8 in NNW 4 mph 6.9 mph 21% 0 in CLR
14:54 87.3 °F 42.6 °F 29.8 in NNW 4 mph 8.1 mph 21% 0 in CLR
14:59 86.5 °F 53.2 °F 29.8 in ESE 4.7 mph 18.4 mph 32% 0 in CLR
15:04 85.6 °F 53.2 °F 29.8 in SE 4.7 mph 12.7 mph 33% 0 in CLR
15:09 85.3 °F 52.9 °F 29.8 in SSE 10.7 mph 15 mph 33% 0 in CLR
15:14 85.3 °F 52.2 °F 29.8 in SE 10.7 mph 19.6 mph 32% 0 in CLR
15:19 85.3 °F 52.9 °F 29.8 in SE 11.4 mph 18.4 mph 33% 0 in CLR
15:24 84.9 °F 52.5 °F 29.8 in ESE 11.4 mph 16.1 mph 33% 0 in CLR
15:29 84.7 °F 54.1 °F 29.8 in ESE 13.7 mph 20.7 mph 35% 0 in CLR
15:34 84.6 °F 54.7 °F 29.8 in ESE 13.7 mph 17.5 mph 36% 0 in CLR
15:39 84.6 °F 54.7 °F 29.8 in ESE 13 mph 21.9 mph 36% 0 in CLR
15:44 84.4 °F 55.9 °F 29.8 in SE 13 mph 18.4 mph 38% 0 in CLR
15:49 84 °F 56.5 °F 29.8 in East 14.5 mph 24.2 mph 39% 0 in CLR
15:54 83.7 °F 56.1 °F 29.8 in ESE 14.5 mph 23 mph 39% 0 in CLR
15:59 84 °F 57 °F 29.8 in SE 14.5 mph 18.4 mph 40% 0 in CLR
16:04 84.2 °F 57.4 °F 29.8 in East 14.5 mph 20.7 mph 40% 0 in CLR
16:09 84.2 °F 57.4 °F 29.8 in ESE 13.7 mph 22.3 mph 40% 0 in CLR
16:14 83.8 °F 56.8 °F 29.8 in ESE 13.7 mph 21.9 mph 40% 0 in CLR
16:19 83.8 °F 56.8 °F 29.8 in East 14.5 mph 20.7 mph 40% 0 in CLR
16:24 83.8 °F 56.8 °F 29.8 in SE 14.5 mph 16.1 mph 40% 0 in CLR
16:29 84 °F 57 °F 29.8 in ESE 13 mph 18.4 mph 40% 0 in CLR
16:34 84.6 °F 56.8 °F 29.8 in ESE 13 mph 15.2 mph 39% 0 in CLR
16:39 84.9 °F 57.2 °F 29.8 in ESE 10.7 mph 17.3 mph 39% 0 in CLR
16:44 84.6 °F 55.4 °F 29.8 in ESE 10.7 mph 24.2 mph 37% 0 in CLR
16:49 84.4 °F 55.2 °F 29.8 in SE 14.5 mph 20.7 mph 37% 0 in CLR
16:54 84.6 °F 54.7 °F 29.8 in SE 14.5 mph 20.7 mph 36% 0 in CLR
16:59 84.9 °F 53.4 °F 29.8 in East 13 mph 15.9 mph 34% 0 in CLR
17:04 84.6 °F 54 °F 29.8 in ESE 13 mph 21.9 mph 35% 0 in CLR
17:09 84 °F 52.5 °F 29.8 in ESE 14.5 mph 17 mph 34% 0 in CLR
17:14 83.8 °F 52.5 °F 29.8 in ESE 14.5 mph 25.3 mph 34% 0 in CLR
17:19 84.4 °F 52.2 °F 29.8 in ESE 14 mph 23 mph 33% 0 in CLR
17:24 84.4 °F 51.3 °F 29.8 in SSE 14 mph 13.8 mph 32% 0 in CLR
17:29 84.4 °F 51.3 °F 29.8 in ESE 11.8 mph 20.7 mph 32% 0 in CLR
17:34 84 °F 51.1 °F 29.8 in ESE 11.8 mph 18.4 mph 32% 0 in CLR
17:39 83.8 °F 50.7 °F 29.8 in ESE 13.7 mph 20.7 mph 32% 0 in CLR
17:44 83.8 °F 50 °F 29.8 in South 13.7 mph 13.8 mph 31% 0 in CLR
17:49 84 °F 50.2 °F 29.8 in ESE 11.2 mph 12.7 mph 31% 0 in CLR
17:54 84.2 °F 50.4 °F 29.8 in ESE 11.2 mph 18.4 mph 31% 0 in CLR
17:59 84.4 °F 50.4 °F 29.8 in East 9.7 mph 13.8 mph 31% 0 in CLR
18:04 84.2 °F 49.5 °F 29.8 in SE 9.7 mph 16.1 mph 30% 0 in CLR
18:09 84.2 °F 49.5 °F 29.8 in SSE 9.7 mph 15 mph 30% 0 in CLR
18:14 84 °F 49.3 °F 29.8 in SSE 9.7 mph 8.7 mph 30% 0 in CLR
18:19 84.2 °F 49.5 °F 29.8 in SSE 10 mph 13.8 mph 30% 0 in CLR
18:24 84 °F 49.3 °F 29.8 in SE 10 mph 16.1 mph 30% 0 in CLR
18:29 84 °F 49.3 °F 29.8 in SE 9.7 mph 12.7 mph 30% 0 in CLR
18:34 83.8 °F 49.1 °F 29.8 in SE 9.7 mph 10.4 mph 30% 0 in CLR
18:39 83.8 °F 49.1 °F 29.8 in SSE 8.1 mph 9.2 mph 30% 0 in CLR
18:44 83.8 °F 49.1 °F 29.8 in SE 8.1 mph 12.7 mph 30% 0 in CLR
18:49 83.5 °F 48.7 °F 29.8 in SSE 6.9 mph 8.1 mph 30% 0 in CLR
18:54 83.7 °F 48.9 °F 29.8 in East 6.9 mph 11.5 mph 30% 0 in CLR
18:59 83.1 °F 49.3 °F 29.8 in ESE 6.2 mph 6.9 mph 31% 0 in CLR
19:04 83.1 °F 48.6 °F 29.8 in SE 6.2 mph 10.4 mph 30% 0 in CLR
19:09 82.9 °F 48.4 °F 29.8 in SE 6.2 mph 6.9 mph 30% 0 in CLR
19:14 82.9 °F 47.5 °F 29.8 in ESE 6.2 mph 7.6 mph 29% 0 in CLR
19:19 82.8 °F 48.2 °F 29.8 in SE 6.2 mph 12.7 mph 30% 0 in CLR
19:24 82.6 °F 47.1 °F 29.8 in ESE 6.2 mph 11.5 mph 29% 0 in CLR
19:29 82.2 °F 46.8 °F 29.8 in ESE 6.9 mph 13.8 mph 29% 0 in CLR
19:34 82 °F 46.6 °F 29.8 in East 6.9 mph 9.2 mph 29% 0 in CLR
19:39 81.9 °F 46.6 °F 29.8 in SSE 8.1 mph 9.2 mph 29% 0 in CLR
19:44 81.9 °F 46.6 °F 29.8 in East 8.1 mph 9.2 mph 29% 0 in CLR
19:49 81.9 °F 46.6 °F 29.8 in ESE 5.9 mph 7.4 mph 29% 0 in CLR
19:54 81.9 °F 55.9 °F 29.8 in NE 5.9 mph 8.1 mph 41% 0 in CLR
19:59 80.8 °F 49.8 °F 29.8 in North 4.3 mph 8.1 mph 34% 0 in CLR
20:04 80.8 °F 46.4 °F 29.8 in ENE 4.3 mph 8.1 mph 30% 0 in CLR
20:09 80.8 °F 58.6 °F 29.8 in NE 5.2 mph 12.7 mph 47% 0 in CLR
20:14 79.3 °F 57.9 °F 29.8 in NE 5.2 mph 17.3 mph 48% 0 in CLR
20:19 78.3 °F 60.3 °F 29.8 in ENE 9.2 mph 13.8 mph 54% 0 in CLR
20:24 77.5 °F 60.1 °F 29.8 in East 9.2 mph 15 mph 55% 0 in CLR
20:29 76.8 °F 59.4 °F 29.8 in ENE 8.7 mph 15 mph 55% 0 in CLR
20:34 76.5 °F 59.5 °F 29.8 in North 8.7 mph 10.4 mph 56% 0 in CLR
20:39 76.3 °F 60.4 °F 29.8 in NNE 7.6 mph 12.7 mph 58% 0 in CLR
20:45 75.7 °F 60.4 °F 29.8 in NE 8 mph 14 mph 59% 0 in CLR
20:50 75 °F 60.6 °F 29.8 in NNE 9.2 mph 15 mph 61% 0 in CLR
20:55 74.8 °F 60.1 °F 29.8 in NE 9 mph 14 mph 60% 0 in CLR
21:00 75 °F 61.2 °F 29.8 in NE 8 mph 14 mph 62% 0 in CLR
21:05 74.7 °F 61.7 °F 29.8 in NE 8 mph 16 mph 64% 0 in CLR
21:10 74.1 °F 62.1 °F 29.8 in NE 9.7 mph 13.8 mph 66% 0 in CLR
21:15 73.8 °F 62.1 °F 29.8 in NNE 9 mph 14 mph 67% 0 in CLR
21:20 73.4 °F 62.2 °F 29.8 in NE 8.7 mph 12.3 mph 68% 0 in CLR
21:25 73 °F 62.2 °F 29.8 in NNE 9 mph 15 mph 69% 0 in CLR
21:30 72.9 °F 62.4 °F 29.8 in NNE 9 mph 17 mph 70% 0 in CLR
21:35 72.7 °F 62.2 °F 29.8 in NNE 9 mph 14 mph 70% 0 in CLR
21:40 72.3 °F 62.8 °F 29.8 in NNE 10 mph 13.8 mph 72% 0 in CLR
21:45 72 °F 62.4 °F 29.8 in NNE 10 mph 16 mph 72% 0 in CLR
21:50 72 °F 62.8 °F 29.8 in NE 9.7 mph 15 mph 73% 0 in CLR
21:55 71.8 °F 62.8 °F 29.8 in NE 9 mph 17 mph 73% 0 in CLR
22:00 71.6 °F 63 °F 29.8 in NE 9 mph 17 mph 74% 0 in CLR
22:05 71.4 °F 62.8 °F 29.8 in NE 9 mph 19 mph 74% 0 in CLR
22:10 71.2 °F 63 °F 29.8 in East 9.7 mph 18.4 mph 75% 0 in CLR
22:15 71.1 °F 62.8 °F 29.8 in NE 9.7 mph 13 mph 75% 0 in CLR
22:20 70.9 °F 62.6 °F 29.8 in NNE 9.2 mph 15 mph 75% 0 in CLR
22:25 70.9 °F 63 °F 29.8 in NE 9 mph 16 mph 76% 0 in CLR
22:30 70.5 °F 63 °F 29.8 in NE 10.7 mph 17.3 mph 77% 0 in CLR
22:35 70.5 °F 63 °F 29.8 in NE 10 mph 16 mph 77% 0 in CLR
22:40 70.2 °F 62.6 °F 29.8 in NE 10 mph 13.8 mph 77% 0 in CLR
22:45 70 °F 62.8 °F 29.8 in NNE 10 mph 17 mph 78% 0 in CLR
22:50 69.8 °F 63 °F 29.8 in NE 10 mph 15.6 mph 79% 0 in CLR
22:55 69.6 °F 62.8 °F 29.8 in NNE 10 mph 16 mph 79% 0 in CLR
23:00 69.4 °F 63 °F 29.8 in NE 10 mph 15 mph 80% 0 in CLR
23:05 69.3 °F 62.8 °F 29.8 in NE 10 mph 15 mph 80% 0 in CLR
23:10 69.3 °F 63.1 °F 29.8 in NNE 10.2 mph 17.3 mph 81% 0 in CLR
23:15 69.1 °F 63 °F 29.8 in NE 10 mph 16 mph 81% 0 in CLR
23:20 69.1 °F 63.3 °F 29.8 in NE 9 mph 15 mph 82% 0 in CLR
23:25 68.9 °F 63.1 °F 29.8 in NE 9 mph 14 mph 82% 0 in CLR
23:30 68.7 °F 63 °F 29.8 in NNE 8.5 mph 11.5 mph 82% 0 in CLR
23:35 68.5 °F 63.1 °F 29.8 in NE 8.5 mph 11.5 mph 83% 0 in CLR
23:40 68.5 °F 63.1 °F 29.8 in NE 9 mph 15 mph 83% 0 in CLR
23:45 68.5 °F 63.5 °F 29.8 in NE 9 mph 14 mph 84% 0 in CLR
23:50 68.5 °F 63.5 °F 29.8 in ENE 8.7 mph 11.5 mph 84% 0 in CLR
23:55 68.4 °F 63.3 °F 29.8 in NE 9 mph 13 mph 84% 0 in CLR
Murcia-Puente Tocinos, España
Compliments of Weather Underground - 2.75 mb

La estación de MeteoMurcia.com, publica sus datos en los siguientes proyectos:

Weather Underground PWS IMURCIAP2 Meteoclimatic www.awekas.at

W3Counter
Web Analytics